Time;durP1;ratioP1;P1;durP2;ratioP2;P2;SDS_P1;SDS_P2;PMS_P1;PMS_P2;Temp;Humidity;BMP_temperature;BMP_pressure;BME280_temperature;BME280_humidity;BME280_pressure;Samples;Min_cycle;Max_cycle;Signal;HPM_P1;HPM_P2
2023/12/22 00:01:08;;;;;;;10.57;2.13;;;5.90;99.90;;;;;;5055637;28;20188;-77
2023/12/22 00:03:33;;;;;;;7.67;1.80;;;5.90;99.90;;;;;;5055660;28;20198;-77
2023/12/22 00:05:59;;;;;;;6.97;2.27;;;5.90;99.90;;;;;;5055210;28;20180;-78
2023/12/22 00:08:24;;;;;;;8.23;1.77;;;5.90;99.90;;;;;;5055529;28;20168;-76
2023/12/22 00:10:50;;;;;;;6.63;1.47;;;5.90;99.90;;;;;;5055386;28;20560;-76
2023/12/22 00:13:15;;;;;;;8.00;2.07;;;5.90;99.90;;;;;;5055326;28;20188;-77
2023/12/22 00:15:44;;;;;;;6.40;2.00;;;6.00;99.90;;;;;;5058306;28;20175;-77
2023/12/22 00:18:10;;;;;;;8.43;1.83;;;6.00;99.90;;;;;;5075114;28;20175;-77
2023/12/22 00:20:35;;;;;;;10.67;2.87;;;6.10;99.90;;;;;;5075284;28;20210;-77
2023/12/22 00:23:01;;;;;;;8.73;2.10;;;6.20;99.90;;;;;;5074963;28;20542;-77
2023/12/22 00:25:26;;;;;;;8.67;1.80;;;6.20;99.90;;;;;;5073294;28;20514;-77
2023/12/22 00:27:52;;;;;;;10.80;2.17;;;6.20;99.90;;;;;;5054871;28;20213;-76
2023/12/22 00:30:17;;;;;;;10.83;2.20;;;6.30;99.90;;;;;;5054862;28;20242;-76
2023/12/22 00:32:43;;;;;;;8.60;1.40;;;6.30;99.90;;;;;;5057920;28;20217;-77
2023/12/22 00:35:09;;;;;;;10.17;1.90;;;6.30;99.90;;;;;;5074733;28;20179;-76
2023/12/22 00:37:35;;;;;;;7.43;2.13;;;6.30;99.90;;;;;;5074678;28;20187;-76
2023/12/22 00:40:00;;;;;;;6.33;1.80;;;6.40;99.90;;;;;;5074512;28;20671;-77
2023/12/22 00:42:26;;;;;;;6.77;1.63;;;6.40;99.90;;;;;;5073596;28;20202;-77
2023/12/22 00:44:52;;;;;;;10.00;2.30;;;6.40;99.90;;;;;;5074813;28;20242;-77
2023/12/22 00:47:17;;;;;;;9.43;2.00;;;6.40;99.90;;;;;;5056686;28;20193;-77
2023/12/22 00:49:43;;;;;;;12.13;2.17;;;6.40;99.90;;;;;;5074540;28;20247;-77
2023/12/22 00:52:08;;;;;;;12.83;2.00;;;6.40;99.90;;;;;;5071865;28;20167;-77
2023/12/22 00:54:34;;;;;;;7.90;2.27;;;6.40;99.90;;;;;;5054978;28;20199;-77
2023/12/22 00:56:59;;;;;;;14.30;2.20;;;6.40;99.90;;;;;;5054349;28;20179;-77
2023/12/22 00:59:25;;;;;;;8.27;1.77;;;6.40;99.90;;;;;;5054410;28;20191;-77
2023/12/22 01:01:50;;;;;;;10.43;1.90;;;6.50;99.90;;;;;;5054195;28;20172;-76
2023/12/22 01:04:16;;;;;;;9.50;1.80;;;6.40;99.90;;;;;;5056166;28;20484;-77
2023/12/22 01:06:42;;;;;;;7.60;1.80;;;6.50;99.90;;;;;;5061591;28;20176;-77
2023/12/22 01:09:07;;;;;;;12.00;2.10;;;6.40;99.90;;;;;;5054059;28;20175;-77
2023/12/22 01:11:33;;;;;;;10.40;1.80;;;6.40;99.90;;;;;;5054252;28;20313;-77
2023/12/22 01:13:58;;;;;;;5.47;1.33;;;6.50;99.90;;;;;;5054067;28;20589;-77
2023/12/22 01:16:24;;;;;;;10.27;2.10;;;6.50;99.90;;;;;;5053738;28;20344;-76
2023/12/22 01:18:50;;;;;;;13.50;2.00;;;6.50;99.90;;;;;;5053897;28;20176;-77
2023/12/22 01:21:16;;;;;;;8.13;1.73;;;6.50;99.90;;;;;;5036035;28;20218;-77
2023/12/22 01:23:42;;;;;;;9.90;1.83;;;6.50;99.90;;;;;;5053969;28;20698;-77
2023/12/22 01:26:07;;;;;;;8.70;1.60;;;6.50;99.90;;;;;;5053740;28;20187;-77
2023/12/22 01:28:34;;;;;;;7.57;1.50;;;6.50;99.90;;;;;;5054266;28;20188;-77
2023/12/22 01:31:00;;;;;;;13.33;2.50;;;6.50;99.90;;;;;;5053493;28;20191;-77
2023/12/22 01:33:26;;;;;;;11.17;2.10;;;6.60;99.90;;;;;;5053854;28;20320;-77
2023/12/22 01:35:51;;;;;;;9.40;1.70;;;6.60;99.90;;;;;;5053373;28;20191;-77
2023/12/22 01:38:17;;;;;;;10.57;1.63;;;6.60;99.90;;;;;;5053900;28;20176;-76
2023/12/22 01:40:43;;;;;;;7.47;1.77;;;6.60;99.90;;;;;;5053579;28;20210;-77
2023/12/22 01:43:08;;;;;;;8.17;1.67;;;6.70;99.90;;;;;;5053516;28;20171;-76
2023/12/22 01:45:34;;;;;;;8.37;1.77;;;6.70;99.90;;;;;;5053289;28;20176;-77
2023/12/22 01:48:00;;;;;;;9.67;2.17;;;6.70;99.90;;;;;;5035408;28;20282;-77
2023/12/22 01:50:26;;;;;;;10.43;2.27;;;6.70;99.90;;;;;;5053372;28;20286;-77
2023/12/22 01:52:52;;;;;;;12.10;1.90;;;6.70;99.90;;;;;;5053493;28;20291;-77
2023/12/22 01:55:18;;;;;;;6.90;1.60;;;6.60;99.90;;;;;;5053538;28;20179;-77
2023/12/22 01:57:45;;;;;;;14.17;2.03;;;6.60;99.90;;;;;;5053313;28;20666;-77
2023/12/22 02:00:11;;;;;;;7.93;2.13;;;6.50;99.90;;;;;;5054724;28;20286;-78
2023/12/22 02:02:38;;;;;;;5.93;1.20;;;6.50;99.90;;;;;;5055840;28;20649;-77
2023/12/22 02:05:05;;;;;;;8.23;1.43;;;6.30;99.90;;;;;;5055039;28;20178;-77
2023/12/22 02:07:31;;;;;;;5.20;1.30;;;6.20;99.90;;;;;;5054156;28;20542;-77
2023/12/22 02:09:57;;;;;;;5.67;1.23;;;6.10;99.90;;;;;;5054935;28;20211;-77
2023/12/22 02:12:23;;;;;;;5.73;0.83;;;6.00;99.90;;;;;;5054517;28;20643;-77
2023/12/22 02:14:48;;;;;;;4.70;1.07;;;5.80;99.90;;;;;;5036300;28;20172;-77
2023/12/22 02:17:33;;;;;;;2.90;0.90;;;5.70;99.90;;;;;;5053838;28;20581;-77
2023/12/22 02:19:58;;;;;;;5.53;1.43;;;5.60;99.90;;;;;;5053265;28;20286;-76
2023/12/22 02:22:24;;;;;;;4.43;1.00;;;5.60;99.90;;;;;;5053278;28;20592;-77
2023/12/22 02:24:50;;;;;;;5.67;1.00;;;5.50;99.90;;;;;;5052786;28;20551;-77
2023/12/22 02:27:28;;;;;;;7.40;1.43;;;5.50;99.90;;;;;;5052636;28;20190;-76
2023/12/22 02:30:13;;;;;;;5.33;1.00;;;5.40;99.90;;;;;;5052780;28;20671;-77
2023/12/22 02:32:43;;;;;;;7.93;1.30;;;5.40;99.90;;;;;;5052560;28;20202;-77
2023/12/22 02:35:16;;;;;;;5.90;1.23;;;5.40;99.90;;;;;;5052921;28;20194;-77
2023/12/22 02:37:42;;;;;;;6.70;1.23;;;5.30;99.90;;;;;;5052751;28;20675;-77
2023/12/22 02:40:09;;;;;;;7.73;1.50;;;5.40;99.90;;;;;;5052597;28;20248;-77
2023/12/22 02:42:36;;;;;;;5.20;1.50;;;5.30;99.90;;;;;;5052395;28;20171;-77
2023/12/22 02:45:04;;;;;;;3.23;1.03;;;5.40;99.90;;;;;;5052430;28;20492;-77
2023/12/22 02:47:30;;;;;;;7.20;1.67;;;5.30;99.90;;;;;;5052569;28;20233;-77
2023/12/22 02:49:55;;;;;;;8.30;1.40;;;5.40;99.90;;;;;;5052731;28;20598;-77
2023/12/22 02:52:21;;;;;;;5.53;1.20;;;5.30;99.90;;;;;;5052908;28;20176;-77
2023/12/22 02:54:47;;;;;;;4.13;1.40;;;5.30;99.90;;;;;;5034559;28;20188;-77
2023/12/22 02:57:13;;;;;;;4.90;1.57;;;5.30;99.90;;;;;;5053083;28;20167;-77
2023/12/22 02:59:38;;;;;;;8.23;1.40;;;5.30;99.90;;;;;;5053708;28;20199;-76
2023/12/22 03:02:04;;;;;;;3.60;1.20;;;5.30;99.90;;;;;;5053652;28;20657;-77
2023/12/22 03:04:30;;;;;;;4.83;1.43;;;5.40;99.90;;;;;;5052582;28;20200;-77
2023/12/22 03:06:55;;;;;;;5.03;1.40;;;5.40;99.90;;;;;;5052382;28;20182;-77
2023/12/22 03:09:21;;;;;;;7.17;1.53;;;5.40;99.90;;;;;;5052318;28;20668;-77
2023/12/22 03:11:47;;;;;;;5.23;1.70;;;5.30;99.90;;;;;;5052156;28;20732;-77
2023/12/22 03:14:13;;;;;;;5.10;1.10;;;5.30;99.90;;;;;;5053448;28;20234;-77
2023/12/22 03:16:39;;;;;;;5.60;1.20;;;5.40;99.90;;;;;;5053725;28;20541;-77
2023/12/22 03:19:06;;;;;;;5.90;1.40;;;5.40;99.90;;;;;;5052130;28;20215;-77
2023/12/22 03:21:32;;;;;;;8.53;2.17;;;5.40;99.90;;;;;;5052177;28;20740;-76
2023/12/22 03:23:57;;;;;;;5.97;1.60;;;5.40;99.90;;;;;;5052119;28;20259;-77
2023/12/22 03:26:23;;;;;;;5.93;1.53;;;5.40;99.90;;;;;;5052196;28;20182;-77
2023/12/22 03:28:48;;;;;;;9.10;1.80;;;5.40;99.90;;;;;;5052413;28;20178;-77
2023/12/22 03:31:14;;;;;;;5.17;1.20;;;5.50;99.90;;;;;;5054253;28;20329;-77
2023/12/22 03:33:39;;;;;;;5.87;1.70;;;5.40;99.90;;;;;;5056179;28;20163;-77
2023/12/22 03:36:05;;;;;;;9.87;1.87;;;5.40;99.90;;;;;;5055916;28;20179;-77
2023/12/22 03:38:30;;;;;;;10.20;1.73;;;5.40;99.90;;;;;;5056013;28;20195;-76
2023/12/22 03:40:56;;;;;;;12.23;2.97;;;5.40;99.90;;;;;;5055692;28;20733;-77
2023/12/22 03:43:21;;;;;;;10.47;2.53;;;5.40;99.90;;;;;;5056329;28;20225;-77
2023/12/22 03:45:47;;;;;;;12.07;2.53;;;5.40;99.90;;;;;;5056085;28;20255;-77
2023/12/22 03:48:13;;;;;;;13.63;2.87;;;5.40;99.90;;;;;;5056042;28;20178;-77
2023/12/22 03:50:38;;;;;;;22.97;4.40;;;5.40;99.90;;;;;;5059320;28;20191;-78
2023/12/22 03:53:03;;;;;;;15.33;3.30;;;5.50;99.90;;;;;;5059265;28;20313;-77
2023/12/22 03:55:29;;;;;;;8.40;2.73;;;5.40;99.90;;;;;;5058666;28;20662;-77
2023/12/22 03:57:55;;;;;;;7.10;2.03;;;5.40;99.90;;;;;;5058609;28;20179;-78
2023/12/22 04:00:20;;;;;;;11.33;2.20;;;5.40;99.90;;;;;;5057801;28;20207;-77
2023/12/22 04:02:46;;;;;;;6.37;2.00;;;5.40;99.90;;;;;;5057478;28;20357;-77
2023/12/22 04:05:11;;;;;;;9.80;2.00;;;5.30;99.90;;;;;;5057368;28;20250;-78
2023/12/22 04:07:37;;;;;;;9.77;2.13;;;5.30;99.90;;;;;;5056958;28;20178;-77
2023/12/22 04:10:03;;;;;;;11.37;1.57;;;5.30;99.90;;;;;;5056664;28;20203;-77
2023/12/22 04:12:29;;;;;;;10.00;1.67;;;5.30;99.90;;;;;;5056814;28;20237;-77
2023/12/22 04:14:54;;;;;;;13.00;2.33;;;5.30;99.90;;;;;;5056563;28;20721;-77
2023/12/22 04:17:20;;;;;;;17.50;2.73;;;5.30;99.90;;;;;;5038045;28;20179;-77
2023/12/22 04:19:45;;;;;;;13.90;3.13;;;5.30;99.90;;;;;;5055730;28;20241;-77
2023/12/22 04:22:11;;;;;;;14.27;3.17;;;5.40;99.90;;;;;;5055610;28;20579;-77
2023/12/22 04:24:36;;;;;;;12.47;2.70;;;5.40;99.90;;;;;;5055857;28;20203;-77
2023/12/22 04:27:02;;;;;;;19.23;3.83;;;5.50;99.90;;;;;;5055890;28;20167;-78
2023/12/22 04:29:28;;;;;;;11.83;3.30;;;5.70;99.90;;;;;;5055150;28;20543;-76
2023/12/22 04:31:53;;;;;;;18.07;3.90;;;6.00;99.90;;;;;;5055111;28;20240;-77
2023/12/22 04:34:19;;;;;;;21.10;4.63;;;6.00;99.90;;;;;;5055020;28;20229;-77
2023/12/22 04:36:44;;;;;;;14.70;4.17;;;6.00;99.90;;;;;;5055097;28;20251;-77
2023/12/22 04:39:10;;;;;;;14.77;4.60;;;6.10;99.90;;;;;;5054759;28;20267;-76
2023/12/22 04:41:35;;;;;;;18.07;4.10;;;6.30;99.90;;;;;;5053789;28;20194;-77
2023/12/22 04:44:04;;;;;;;15.33;3.03;;;6.40;99.90;;;;;;5054582;28;20254;-77
2023/12/22 04:46:30;;;;;;;19.53;3.30;;;6.50;99.90;;;;;;5054845;28;20631;-77
2023/12/22 04:48:56;;;;;;;21.73;2.93;;;6.50;99.90;;;;;;5054625;28;20164;-77
2023/12/22 04:51:21;;;;;;;14.90;3.23;;;6.50;99.90;;;;;;5054597;28;20697;-77
2023/12/22 04:53:47;;;;;;;21.00;3.50;;;6.50;99.90;;;;;;5054496;28;20183;-76
2023/12/22 04:56:12;;;;;;;21.20;3.73;;;6.50;99.90;;;;;;5054432;28;20178;-77
2023/12/22 04:58:38;;;;;;;15.23;3.20;;;6.60;99.90;;;;;;5054676;28;20172;-77
2023/12/22 05:01:03;;;;;;;15.57;3.60;;;6.60;99.90;;;;;;5054350;28;20242;-76
2023/12/22 05:03:29;;;;;;;18.90;4.20;;;6.70;99.90;;;;;;5054460;28;20222;-77
2023/12/22 05:05:54;;;;;;;18.07;3.83;;;6.70;99.90;;;;;;5054273;28;20222;-77
2023/12/22 05:08:20;;;;;;;17.00;3.90;;;6.80;99.90;;;;;;5055087;28;20218;-78
2023/12/22 05:10:45;;;;;;;17.93;3.53;;;6.80;99.90;;;;;;5054334;28;20187;-77
2023/12/22 05:13:11;;;;;;;14.63;2.83;;;6.90;99.90;;;;;;5054312;28;20179;-77
2023/12/22 05:15:36;;;;;;;16.77;3.13;;;6.90;99.90;;;;;;5054120;28;20176;-77
2023/12/22 05:18:02;;;;;;;13.47;3.33;;;6.90;99.90;;;;;;5054219;28;20180;-77
2023/12/22 05:20:28;;;;;;;19.27;2.80;;;7.00;99.90;;;;;;5054039;28;20269;-77
2023/12/22 05:22:54;;;;;;;9.97;2.33;;;6.90;99.90;;;;;;5054614;28;20251;-77
2023/12/22 05:25:19;;;;;;;7.83;2.13;;;6.90;99.90;;;;;;5054262;28;20175;-77
2023/12/22 05:27:45;;;;;;;8.50;2.33;;;6.60;99.90;;;;;;5055201;28;20179;-76
2023/12/22 05:30:11;;;;;;;9.97;1.93;;;6.40;99.90;;;;;;5036724;28;20199;-77
2023/12/22 05:32:37;;;;;;;10.23;1.80;;;6.20;99.90;;;;;;5053657;28;20196;-77
2023/12/22 05:35:03;;;;;;;12.33;2.07;;;6.10;99.90;;;;;;5054264;28;20183;-77
2023/12/22 05:37:28;;;;;;;10.10;1.70;;;6.00;99.90;;;;;;5053692;28;20172;-77
2023/12/22 05:39:54;;;;;;;6.53;1.57;;;5.90;99.90;;;;;;5054028;28;20220;-77
2023/12/22 05:42:19;;;;;;;7.10;1.37;;;5.80;99.90;;;;;;5053680;28;20175;-77
2023/12/22 05:44:49;;;;;;;5.97;1.23;;;5.80;99.90;;;;;;5053856;28;20203;-77
2023/12/22 05:47:15;;;;;;;6.10;1.17;;;5.70;99.90;;;;;;5053625;28;20170;-77
2023/12/22 05:49:41;;;;;;;4.60;1.47;;;5.70;99.90;;;;;;5053746;28;20168;-77
2023/12/22 05:52:07;;;;;;;4.40;1.40;;;5.70;99.90;;;;;;5054984;28;20199;-78
2023/12/22 05:54:32;;;;;;;5.80;1.63;;;5.70;99.90;;;;;;5055869;28;20187;-78
2023/12/22 05:56:58;;;;;;;7.10;1.80;;;5.80;99.90;;;;;;5056025;28;20168;-78
2023/12/22 05:59:23;;;;;;;7.47;2.07;;;5.70;99.90;;;;;;5055950;28;20195;-77
2023/12/22 06:01:53;;;;;;;10.43;2.30;;;5.70;99.90;;;;;;5054888;28;20266;-77
2023/12/22 06:04:19;;;;;;;8.73;1.77;;;5.70;99.90;;;;;;5055316;28;20230;-77
2023/12/22 06:06:44;;;;;;;4.93;1.43;;;5.70;99.90;;;;;;5036342;28;20249;-78
2023/12/22 06:09:12;;;;;;;6.17;1.50;;;5.70;99.90;;;;;;5054886;28;20249;-77
2023/12/22 06:11:39;;;;;;;10.53;1.50;;;5.80;99.90;;;;;;5054383;28;20188;-77
2023/12/22 06:14:05;;;;;;;12.30;1.90;;;5.80;99.90;;;;;;5053515;28;20614;-77
2023/12/22 06:16:31;;;;;;;7.40;1.90;;;5.80;99.90;;;;;;5053100;28;20551;-77
2023/12/22 06:18:56;;;;;;;10.83;1.90;;;5.70;99.90;;;;;;5035073;28;20195;-77
2023/12/22 06:21:22;;;;;;;11.53;2.30;;;5.80;99.90;;;;;;5052921;28;20215;-77
2023/12/22 06:23:47;;;;;;;10.20;2.40;;;5.80;99.90;;;;;;5053161;28;20179;-77
2023/12/22 06:26:13;;;;;;;13.97;2.60;;;5.80;99.90;;;;;;5052837;28;20176;-77
2023/12/22 06:28:39;;;;;;;10.77;2.53;;;5.90;99.90;;;;;;5034778;28;20578;-77
2023/12/22 06:31:18;;;;;;;11.57;3.10;;;5.90;99.90;;;;;;5052573;28;20623;-76
2023/12/22 06:33:44;;;;;;;14.50;5.27;;;5.90;99.90;;;;;;5052768;28;20160;-77
2023/12/22 06:36:26;;;;;;;16.13;6.20;;;5.90;99.90;;;;;;5053140;28;20232;-77
2023/12/22 06:38:57;;;;;;;21.00;6.00;;;6.00;99.90;;;;;;5052556;28;20159;-77
2023/12/22 06:41:23;;;;;;;25.90;5.33;;;6.00;99.90;;;;;;5052556;28;20220;-77
2023/12/22 06:43:50;;;;;;;18.30;5.00;;;6.20;99.90;;;;;;5034978;28;20175;-77
2023/12/22 06:46:21;;;;;;;16.03;3.77;;;6.20;99.90;;;;;;5052448;28;20160;-76
2023/12/22 06:48:48;;;;;;;16.53;3.40;;;6.20;99.90;;;;;;5052468;28;20152;-77
2023/12/22 06:51:35;;;;;;;22.20;3.80;;;6.30;99.90;;;;;;5052370;28;20302;-77
2023/12/22 06:54:02;;;;;;;21.53;3.37;;;6.40;99.90;;;;;;5052359;28;20162;-77
2023/12/22 06:56:31;;;;;;;19.37;3.20;;;6.50;99.90;;;;;;5052495;28;20288;-77
2023/12/22 06:58:57;;;;;;;20.50;3.97;;;6.60;99.90;;;;;;5052161;28;20634;-77
2023/12/22 07:01:35;;;;;;;17.20;2.60;;;6.70;99.90;;;;;;5052394;28;20565;-77
2023/12/22 07:04:02;;;;;;;9.13;2.70;;;6.80;99.90;;;;;;5052607;28;20242;-77
2023/12/22 07:06:30;;;;;;;9.27;2.60;;;6.90;99.90;;;;;;5052764;28;20175;-77
2023/12/22 07:09:14;;;;;;;12.77;2.90;;;7.10;99.90;;;;;;5054307;28;20298;-77
2023/12/22 07:11:44;;;;;;;12.47;3.00;;;7.10;99.90;;;;;;5053617;28;20225;-77
2023/12/22 07:14:10;;;;;;;15.50;3.43;;;7.10;99.90;;;;;;5054176;28;20263;-77
2023/12/22 07:16:36;;;;;;;11.53;3.47;;;7.20;99.90;;;;;;5055441;28;20224;-77
2023/12/22 07:19:02;;;;;;;14.57;3.30;;;7.30;99.90;;;;;;5053963;28;20172;-78
2023/12/22 07:21:27;;;;;;;17.00;3.37;;;7.30;99.90;;;;;;5053581;28;20191;-77
2023/12/22 07:23:53;;;;;;;11.03;2.53;;;7.50;99.90;;;;;;5052382;28;20178;-77
2023/12/22 07:26:21;;;;;;;16.83;3.03;;;7.60;99.90;;;;;;5052192;28;20293;-77
2023/12/22 07:28:47;;;;;;;12.77;2.70;;;7.60;99.90;;;;;;5052704;28;20198;-77
2023/12/22 07:31:13;;;;;;;17.87;3.73;;;7.60;99.90;;;;;;5051923;28;20207;-77
2023/12/22 07:33:40;;;;;;;9.87;2.80;;;7.60;99.90;;;;;;5052765;28;20218;-78
2023/12/22 07:36:06;;;;;;;14.83;3.10;;;7.60;99.90;;;;;;5052604;28;20203;-77
2023/12/22 07:38:32;;;;;;;14.27;3.47;;;7.60;99.90;;;;;;5052365;28;20186;-77
2023/12/22 07:40:57;;;;;;;10.13;2.50;;;7.60;99.90;;;;;;5052233;28;20211;-77
2023/12/22 07:43:23;;;;;;;13.77;2.73;;;7.60;99.90;;;;;;5052889;28;20168;-77
2023/12/22 07:45:50;;;;;;;10.73;3.10;;;7.50;99.90;;;;;;5052538;28;20168;-77
2023/12/22 07:48:16;;;;;;;19.30;4.03;;;7.60;99.90;;;;;;5052616;28;20171;-77
2023/12/22 07:50:45;;;;;;;13.73;4.07;;;7.80;99.90;;;;;;5052463;28;20191;-77
2023/12/22 07:53:11;;;;;;;17.70;4.13;;;7.80;99.90;;;;;;5052140;28;20174;-77
2023/12/22 07:55:38;;;;;;;16.37;4.17;;;7.80;99.90;;;;;;5052076;28;20182;-77
2023/12/22 07:58:04;;;;;;;22.10;4.30;;;7.90;99.90;;;;;;5051745;28;20269;-78
2023/12/22 08:00:30;;;;;;;18.93;4.70;;;7.90;99.90;;;;;;5051677;28;20215;-77
2023/12/22 08:02:55;;;;;;;19.70;3.97;;;7.80;99.90;;;;;;5034525;28;20646;-76
2023/12/22 08:05:21;;;;;;;11.73;3.00;;;7.80;99.90;;;;;;5051881;28;20168;-77
2023/12/22 08:07:46;;;;;;;21.83;4.10;;;7.90;99.90;;;;;;5051825;28;20651;-77
2023/12/22 08:10:12;;;;;;;21.40;4.13;;;7.80;99.90;;;;;;5051765;28;20192;-77
2023/12/22 08:12:37;;;;;;;17.50;3.80;;;7.80;99.90;;;;;;5051636;28;20171;-77
2023/12/22 08:15:03;;;;;;;16.23;3.67;;;7.80;99.90;;;;;;5051698;28;20670;-76
2023/12/22 08:17:29;;;;;;;27.17;4.67;;;7.90;99.90;;;;;;5054223;28;20711;-77
2023/12/22 08:19:56;;;;;;;20.50;4.43;;;7.90;99.90;;;;;;5054939;28;20305;-78
2023/12/22 08:22:22;;;;;;;23.90;4.67;;;7.90;99.90;;;;;;5055256;28;20198;-77
2023/12/22 08:24:48;;;;;;;22.23;5.20;;;7.90;99.90;;;;;;5055161;28;20167;-77
2023/12/22 08:27:13;;;;;;;23.13;4.43;;;8.00;99.90;;;;;;5055308;28;20251;-76
2023/12/22 08:29:39;;;;;;;22.87;5.10;;;8.00;99.90;;;;;;5055655;28;20258;-76
2023/12/22 08:32:05;;;;;;;28.33;5.70;;;8.00;99.90;;;;;;5055951;28;20191;-75
2023/12/22 08:34:30;;;;;;;25.53;5.43;;;8.00;99.90;;;;;;5054703;28;20178;-75
2023/12/22 08:36:56;;;;;;;30.47;5.13;;;8.10;99.90;;;;;;5054730;28;20679;-76
2023/12/22 08:39:24;;;;;;;23.60;5.27;;;8.10;99.90;;;;;;5054666;28;20242;-76
2023/12/22 08:41:49;;;;;;;35.27;5.60;;;8.20;99.90;;;;;;5054516;28;20679;-75
2023/12/22 08:44:15;;;;;;;34.87;5.97;;;8.10;99.90;;;;;;5054776;28;20179;-76
2023/12/22 08:46:40;;;;;;;30.63;6.17;;;8.20;99.90;;;;;;5054611;28;20163;-75
2023/12/22 08:49:07;;;;;;;29.70;5.13;;;8.30;99.90;;;;;;5054526;28;20183;-76
2023/12/22 08:51:33;;;;;;;28.83;5.80;;;8.30;99.90;;;;;;5054582;28;20659;-77
2023/12/22 08:53:59;;;;;;;32.53;6.03;;;8.40;99.90;;;;;;5054647;28;20167;-77
2023/12/22 08:56:25;;;;;;;35.40;6.30;;;8.40;99.90;;;;;;5054577;28;20172;-77
2023/12/22 08:58:52;;;;;;;31.33;5.93;;;8.50;99.90;;;;;;5054446;28;20167;-77
2023/12/22 09:01:18;;;;;;;32.00;6.57;;;8.50;99.90;;;;;;5054404;28;20207;-77
2023/12/22 09:03:47;;;;;;;29.70;5.60;;;8.50;99.90;;;;;;5054592;28;20592;-77
2023/12/22 09:06:16;;;;;;;28.80;5.87;;;8.50;99.90;;;;;;5054097;28;20180;-76
2023/12/22 09:08:42;;;;;;;23.90;5.80;;;8.50;99.90;;;;;;5036269;28;20722;-76
2023/12/22 09:11:08;;;;;;;26.63;5.10;;;8.50;99.90;;;;;;5054217;28;20257;-76
2023/12/22 09:13:35;;;;;;;26.17;5.03;;;8.50;99.90;;;;;;5054125;28;20539;-76
2023/12/22 09:16:02;;;;;;;34.33;6.67;;;8.50;99.90;;;;;;5054642;28;20250;-75
2023/12/22 09:18:28;;;;;;;29.20;4.77;;;8.60;99.90;;;;;;5053932;28;20180;-77
2023/12/22 09:20:53;;;;;;;28.13;5.67;;;8.50;99.90;;;;;;5054386;28;20734;-77
2023/12/22 09:23:19;;;;;;;20.03;4.50;;;8.60;99.90;;;;;;5056875;28;20172;-77
2023/12/22 09:25:45;;;;;;;26.20;5.00;;;8.60;99.90;;;;;;5054847;28;20229;-77
2023/12/22 09:28:11;;;;;;;27.30;4.53;;;8.60;99.90;;;;;;5053807;28;20171;-77
2023/12/22 09:30:36;;;;;;;30.70;4.87;;;8.70;99.90;;;;;;5054145;28;20211;-76
2023/12/22 09:33:02;;;;;;;24.37;5.37;;;8.70;99.90;;;;;;5054912;28;20642;-78
2023/12/22 09:35:27;;;;;;;25.57;5.27;;;8.70;99.90;;;;;;5056971;28;20643;-80
2023/12/22 09:37:54;;;;;;;26.43;5.40;;;8.70;99.90;;;;;;5060152;28;20182;-79
2023/12/22 09:40:21;;;;;;;30.30;5.83;;;8.70;99.90;;;;;;5055345;28;20286;-77
2023/12/22 09:42:47;;;;;;;22.87;4.57;;;8.70;99.90;;;;;;5057308;28;20217;-76
2023/12/22 09:45:18;;;;;;;25.73;4.03;;;8.80;99.90;;;;;;5054439;28;20222;-75
2023/12/22 09:47:45;;;;;;;26.63;4.73;;;8.80;99.90;;;;;;5053614;28;20155;-76
2023/12/22 09:50:11;;;;;;;23.27;4.17;;;8.80;99.90;;;;;;5053305;28;20191;-76
2023/12/22 09:52:38;;;;;;;25.73;4.77;;;8.70;99.90;;;;;;5053782;28;20176;-75
2023/12/22 09:55:05;;;;;;;25.57;4.20;;;8.70;99.90;;;;;;5060354;28;20198;-75
2023/12/22 09:57:32;;;;;;;19.07;3.80;;;8.70;99.90;;;;;;5073195;28;20171;-76
2023/12/22 10:00:00;;;;;;;26.67;3.93;;;8.70;99.90;;;;;;5073025;28;20241;-76
2023/12/22 10:02:27;;;;;;;19.87;4.00;;;8.70;99.90;;;;;;5073120;28;20163;-76
2023/12/22 10:04:53;;;;;;;14.37;3.60;;;8.90;99.90;;;;;;5066373;28;20651;-75
2023/12/22 10:07:20;;;;;;;16.00;3.47;;;8.90;99.90;;;;;;5053016;28;20257;-75
2023/12/22 10:09:47;;;;;;;11.60;3.47;;;9.00;99.90;;;;;;5052922;28;20215;-75
2023/12/22 10:12:14;;;;;;;17.40;4.20;;;9.00;99.90;;;;;;5053552;28;20701;-75
2023/12/22 10:14:41;;;;;;;13.67;3.03;;;9.00;99.90;;;;;;5052907;28;20176;-76
2023/12/22 10:17:06;;;;;;;13.80;3.07;;;9.10;99.90;;;;;;5052870;28;20171;-76
2023/12/22 10:19:32;;;;;;;11.20;2.40;;;9.10;99.90;;;;;;5052992;28;20203;-76
2023/12/22 10:21:57;;;;;;;10.77;2.97;;;9.10;99.90;;;;;;5053006;28;20171;-75
2023/12/22 10:24:43;;;;;;;15.87;3.07;;;9.30;99.90;;;;;;5052752;28;20183;-76
2023/12/22 10:27:10;;;;;;;10.63;2.27;;;9.20;99.90;;;;;;5052890;28;20191;-76
2023/12/22 10:29:35;;;;;;;9.77;2.33;;;9.20;99.90;;;;;;5063712;28;20621;-75
2023/12/22 10:32:02;;;;;;;11.70;2.90;;;9.20;99.90;;;;;;5072507;28;20270;-77
2023/12/22 10:34:29;;;;;;;7.50;3.50;;;9.20;99.90;;;;;;5070120;28;20252;-76
2023/12/22 10:36:54;;;;;;;14.33;4.17;;;9.10;99.90;;;;;;5070291;28;20199;-76
2023/12/22 10:39:21;;;;;;;11.53;3.70;;;9.10;99.90;;;;;;5069816;28;20705;-76
2023/12/22 10:41:47;;;;;;;10.93;3.30;;;9.10;99.90;;;;;;5069499;28;20650;-76
2023/12/22 10:44:13;;;;;;;20.47;4.67;;;9.00;99.90;;;;;;5070320;28;20201;-76
2023/12/22 10:46:40;;;;;;;13.40;3.90;;;9.00;99.90;;;;;;5069590;28;20209;-76
2023/12/22 10:49:07;;;;;;;11.50;3.90;;;8.90;99.90;;;;;;5065356;28;20671;-77
2023/12/22 10:51:32;;;;;;;10.63;4.00;;;8.90;99.90;;;;;;5052546;28;20560;-76
2023/12/22 10:53:58;;;;;;;9.97;3.90;;;8.90;99.90;;;;;;5052372;28;20246;-77
2023/12/22 10:56:25;;;;;;;11.13;3.10;;;8.90;99.90;;;;;;5052307;28;20168;-77
2023/12/22 10:58:54;;;;;;;8.87;2.67;;;9.00;99.90;;;;;;5052624;28;20659;-76
2023/12/22 11:01:22;;;;;;;10.07;2.90;;;9.00;99.90;;;;;;5052804;28;20214;-76
2023/12/22 11:03:51;;;;;;;10.17;3.97;;;9.00;99.90;;;;;;5065655;28;20244;-75
2023/12/22 11:06:17;;;;;;;13.60;7.87;;;9.10;99.90;;;;;;5072348;28;20211;-76
2023/12/22 11:08:49;;;;;;;13.20;6.00;;;9.20;99.90;;;;;;5072739;28;20216;-77
2023/12/22 11:11:29;;;;;;;10.80;5.27;;;9.20;99.90;;;;;;5072754;28;20562;-77
2023/12/22 11:13:57;;;;;;;10.63;6.07;;;9.30;99.90;;;;;;5072773;28;20163;-77
2023/12/22 11:16:24;;;;;;;7.17;3.27;;;9.30;99.90;;;;;;5072469;28;20182;-76
2023/12/22 11:18:53;;;;;;;8.77;2.60;;;9.40;99.90;;;;;;5072253;28;20186;-77
2023/12/22 11:21:20;;;;;;;7.17;1.80;;;9.60;99.90;;;;;;5054094;28;20354;-76
2023/12/22 11:23:47;;;;;;;5.37;1.87;;;9.60;99.90;;;;;;5072314;28;20175;-77
2023/12/22 11:26:15;;;;;;;4.87;1.60;;;9.70;99.90;;;;;;5054281;28;20183;-76
2023/12/22 11:28:43;;;;;;;5.83;2.10;;;9.60;99.90;;;;;;5071736;28;20175;-77
2023/12/22 11:31:10;;;;;;;7.10;2.37;;;9.60;99.90;;;;;;5071735;28;20709;-76
2023/12/22 11:33:37;;;;;;;6.67;3.10;;;9.70;99.90;;;;;;5054687;28;20266;-76
2023/12/22 11:36:04;;;;;;;6.80;2.50;;;9.70;99.90;;;;;;5053991;28;20644;-76
2023/12/22 11:38:31;;;;;;;6.43;3.03;;;9.80;99.90;;;;;;5072182;28;20179;-77
2023/12/22 11:40:58;;;;;;;8.93;2.20;;;9.80;99.90;;;;;;5071805;28;20648;-77
2023/12/22 11:43:24;;;;;;;4.70;1.90;;;9.80;99.90;;;;;;5072073;28;20183;-76
2023/12/22 11:45:50;;;;;;;5.83;1.70;;;9.90;99.90;;;;;;5072019;28;20167;-76
2023/12/22 11:48:16;;;;;;;7.87;2.17;;;10.00;99.90;;;;;;5071832;28;20171;-76
2023/12/22 11:50:42;;;;;;;6.23;2.73;;;10.00;99.90;;;;;;5071747;28;20659;-76
2023/12/22 11:53:32;;;;;;;7.73;2.90;;;10.00;99.90;;;;;;5075596;28;20520;-76
2023/12/22 11:56:08;;;;;;;9.27;1.80;;;10.20;99.90;;;;;;5075705;28;20167;-76
2023/12/22 11:58:38;;;;;;;5.57;1.50;;;10.20;99.90;;;;;;5075520;28;20182;-76
2023/12/22 12:01:13;;;;;;;4.53;1.57;;;10.10;99.90;;;;;;5075321;28;20210;-76
2023/12/22 12:03:59;;;;;;;4.03;1.23;;;10.10;99.90;;;;;;5080587;28;20259;-78
2023/12/22 12:06:25;;;;;;;4.73;1.80;;;10.10;99.90;;;;;;5081189;28;20645;-79
2023/12/22 12:08:53;;;;;;;7.23;1.80;;;10.20;99.90;;;;;;5062957;28;20175;-79
2023/12/22 12:11:19;;;;;;;4.60;1.60;;;10.30;99.90;;;;;;5081495;28;20191;-80
2023/12/22 12:13:46;;;;;;;4.20;1.40;;;10.30;99.90;;;;;;5081441;28;20233;-79
2023/12/22 12:16:12;;;;;;;5.37;1.80;;;10.30;99.90;;;;;;5081974;28;20612;-79
2023/12/22 12:18:39;;;;;;;6.73;1.87;;;10.30;99.90;;;;;;5081824;28;20325;-79
2023/12/22 12:21:12;;;;;;;4.03;1.43;;;10.30;99.90;;;;;;5080799;28;20275;-79
2023/12/22 12:23:40;;;;;;;3.60;1.37;;;10.40;99.90;;;;;;5080411;28;20285;-79
2023/12/22 12:26:07;;;;;;;4.20;1.20;;;10.50;99.90;;;;;;5061851;28;20188;-79
2023/12/22 12:28:35;;;;;;;5.63;1.20;;;10.50;99.90;;;;;;5079960;28;20163;-80
2023/12/22 12:31:05;;;;;;;3.60;1.37;;;10.50;99.90;;;;;;5078623;28;20667;-80
2023/12/22 12:33:32;;;;;;;5.03;1.50;;;10.50;99.90;;;;;;5062291;28;20190;-79
2023/12/22 12:36:00;;;;;;;6.93;1.50;;;10.50;99.90;;;;;;5061418;28;20191;-79
2023/12/22 12:38:43;;;;;;;3.43;1.27;;;10.50;99.90;;;;;;5064952;28;20183;-79
2023/12/22 12:41:11;;;;;;;6.37;1.67;;;10.40;99.90;;;;;;5082611;28;20237;-80
2023/12/22 12:43:43;;;;;;;10.27;1.83;;;10.40;99.90;;;;;;5082414;28;20245;-80
2023/12/22 12:46:08;;;;;;;6.53;1.30;;;10.40;99.90;;;;;;5082576;28;20238;-80
2023/12/22 12:48:34;;;;;;;7.33;1.80;;;10.40;99.90;;;;;;5081949;28;20267;-77